sensor_id;sensor_type;location;lat;lon;timestamp;P1;durP1;ratioP1;P2;durP2;ratioP2
53833;SDS011;39735;51.432;5.482;2024-03-25T00:02:29;47.83;;;11.98;;
53833;SDS011;39735;51.432;5.482;2024-03-25T00:05:54;69.05;;;9.68;;
53833;SDS011;39735;51.432;5.482;2024-03-25T00:09:18;57.50;;;9.63;;
53833;SDS011;39735;51.432;5.482;2024-03-25T00:12:42;48.08;;;8.75;;
53833;SDS011;39735;51.432;5.482;2024-03-25T00:16:06;77.50;;;13.18;;
53833;SDS011;39735;51.432;5.482;2024-03-25T00:19:31;56.60;;;11.82;;
53833;SDS011;39735;51.432;5.482;2024-03-25T00:22:55;56.75;;;9.38;;
53833;SDS011;39735;51.432;5.482;2024-03-25T00:26:21;56.17;;;10.60;;
53833;SDS011;39735;51.432;5.482;2024-03-25T00:29:45;52.63;;;9.73;;
53833;SDS011;39735;51.432;5.482;2024-03-25T00:33:09;45.88;;;8.45;;
53833;SDS011;39735;51.432;5.482;2024-03-25T00:36:33;61.72;;;11.55;;
53833;SDS011;39735;51.432;5.482;2024-03-25T00:39:57;44.45;;;10.13;;
53833;SDS011;39735;51.432;5.482;2024-03-25T00:43:22;45.65;;;10.73;;
53833;SDS011;39735;51.432;5.482;2024-03-25T00:46:46;61.70;;;11.32;;
53833;SDS011;39735;51.432;5.482;2024-03-25T00:50:10;64.18;;;10.38;;
53833;SDS011;39735;51.432;5.482;2024-03-25T00:53:34;55.38;;;10.02;;
53833;SDS011;39735;51.432;5.482;2024-03-25T00:56:58;53.15;;;8.27;;
53833;SDS011;39735;51.432;5.482;2024-03-25T01:00:22;53.60;;;10.65;;
53833;SDS011;39735;51.432;5.482;2024-03-25T01:03:46;67.07;;;11.27;;
53833;SDS011;39735;51.432;5.482;2024-03-25T01:07:10;40.90;;;7.63;;
53833;SDS011;39735;51.432;5.482;2024-03-25T01:10:36;63.92;;;10.40;;
53833;SDS011;39735;51.432;5.482;2024-03-25T01:14:00;52.13;;;10.10;;
53833;SDS011;39735;51.432;5.482;2024-03-25T01:17:24;46.30;;;9.50;;
53833;SDS011;39735;51.432;5.482;2024-03-25T01:20:48;68.07;;;9.50;;
53833;SDS011;39735;51.432;5.482;2024-03-25T01:24:12;67.72;;;9.23;;
53833;SDS011;39735;51.432;5.482;2024-03-25T01:27:36;50.78;;;8.25;;
53833;SDS011;39735;51.432;5.482;2024-03-25T01:31:00;44.20;;;8.48;;
53833;SDS011;39735;51.432;5.482;2024-03-25T01:34:24;56.75;;;8.38;;
53833;SDS011;39735;51.432;5.482;2024-03-25T01:37:48;56.08;;;9.57;;
53833;SDS011;39735;51.432;5.482;2024-03-25T01:41:13;41.08;;;8.10;;
53833;SDS011;39735;51.432;5.482;2024-03-25T01:44:37;48.90;;;8.70;;
53833;SDS011;39735;51.432;5.482;2024-03-25T01:48:02;52.08;;;9.52;;
53833;SDS011;39735;51.432;5.482;2024-03-25T01:51:26;62.20;;;9.00;;
53833;SDS011;39735;51.432;5.482;2024-03-25T01:54:51;39.85;;;9.10;;
53833;SDS011;39735;51.432;5.482;2024-03-25T01:58:15;52.97;;;9.52;;
53833;SDS011;39735;51.432;5.482;2024-03-25T02:01:40;43.20;;;6.93;;
53833;SDS011;39735;51.432;5.482;2024-03-25T02:05:06;63.25;;;10.35;;
53833;SDS011;39735;51.432;5.482;2024-03-25T02:08:33;44.00;;;8.43;;
53833;SDS011;39735;51.432;5.482;2024-03-25T02:11:58;39.30;;;8.23;;
53833;SDS011;39735;51.432;5.482;2024-03-25T02:15:22;59.88;;;11.77;;
53833;SDS011;39735;51.432;5.482;2024-03-25T02:18:46;76.80;;;11.60;;
53833;SDS011;39735;51.432;5.482;2024-03-25T02:22:10;63.92;;;10.05;;
53833;SDS011;39735;51.432;5.482;2024-03-25T02:25:35;44.20;;;11.63;;
53833;SDS011;39735;51.432;5.482;2024-03-25T02:32:32;51.50;;;9.88;;
53833;SDS011;39735;51.432;5.482;2024-03-25T02:35:56;41.85;;;11.13;;
53833;SDS011;39735;51.432;5.482;2024-03-25T02:39:21;21.92;;;8.85;;
53833;SDS011;39735;51.432;5.482;2024-03-25T02:42:45;46.50;;;9.93;;
53833;SDS011;39735;51.432;5.482;2024-03-25T02:46:09;38.13;;;9.60;;
53833;SDS011;39735;51.432;5.482;2024-03-25T02:49:33;43.58;;;9.55;;
53833;SDS011;39735;51.432;5.482;2024-03-25T02:52:57;41.00;;;7.90;;
53833;SDS011;39735;51.432;5.482;2024-03-25T02:56:21;46.65;;;11.70;;
53833;SDS011;39735;51.432;5.482;2024-03-25T02:59:45;38.45;;;8.85;;
53833;SDS011;39735;51.432;5.482;2024-03-25T03:03:09;44.72;;;10.05;;
53833;SDS011;39735;51.432;5.482;2024-03-25T03:06:33;59.85;;;11.68;;
53833;SDS011;39735;51.432;5.482;2024-03-25T03:09:57;39.75;;;10.10;;
53833;SDS011;39735;51.432;5.482;2024-03-25T03:13:21;55.17;;;11.77;;
53833;SDS011;39735;51.432;5.482;2024-03-25T03:16:45;36.92;;;9.10;;
53833;SDS011;39735;51.432;5.482;2024-03-25T03:20:09;24.00;;;8.50;;
53833;SDS011;39735;51.432;5.482;2024-03-25T03:23:33;45.60;;;10.57;;
53833;SDS011;39735;51.432;5.482;2024-03-25T03:26:57;45.25;;;8.80;;
53833;SDS011;39735;51.432;5.482;2024-03-25T03:30:21;42.03;;;8.15;;
53833;SDS011;39735;51.432;5.482;2024-03-25T03:33:49;40.42;;;12.38;;
53833;SDS011;39735;51.432;5.482;2024-03-25T03:37:12;49.83;;;11.00;;
53833;SDS011;39735;51.432;5.482;2024-03-25T03:40:36;31.02;;;7.47;;
53833;SDS011;39735;51.432;5.482;2024-03-25T03:44:01;29.88;;;10.18;;
53833;SDS011;39735;51.432;5.482;2024-03-25T03:47:25;44.20;;;10.38;;
53833;SDS011;39735;51.432;5.482;2024-03-25T03:50:49;38.10;;;8.50;;
53833;SDS011;39735;51.432;5.482;2024-03-25T03:54:13;26.50;;;8.93;;
53833;SDS011;39735;51.432;5.482;2024-03-25T03:57:37;30.50;;;8.48;;
53833;SDS011;39735;51.432;5.482;2024-03-25T04:01:01;41.90;;;10.50;;
53833;SDS011;39735;51.432;5.482;2024-03-25T04:04:25;40.10;;;9.57;;
53833;SDS011;39735;51.432;5.482;2024-03-25T04:07:53;40.42;;;10.70;;
53833;SDS011;39735;51.432;5.482;2024-03-25T04:11:17;27.25;;;8.55;;
53833;SDS011;39735;51.432;5.482;2024-03-25T04:14:41;50.70;;;9.77;;
53833;SDS011;39735;51.432;5.482;2024-03-25T04:18:06;58.20;;;11.93;;
53833;SDS011;39735;51.432;5.482;2024-03-25T04:21:30;33.50;;;10.40;;
53833;SDS011;39735;51.432;5.482;2024-03-25T04:24:54;30.73;;;10.85;;
53833;SDS011;39735;51.432;5.482;2024-03-25T04:28:18;36.83;;;10.07;;
53833;SDS011;39735;51.432;5.482;2024-03-25T04:31:42;29.23;;;11.30;;
53833;SDS011;39735;51.432;5.482;2024-03-25T04:35:06;41.78;;;13.60;;
53833;SDS011;39735;51.432;5.482;2024-03-25T04:38:31;41.05;;;11.23;;
53833;SDS011;39735;51.432;5.482;2024-03-25T04:41:54;46.28;;;10.90;;
53833;SDS011;39735;51.432;5.482;2024-03-25T04:45:18;35.08;;;8.63;;
53833;SDS011;39735;51.432;5.482;2024-03-25T04:48:43;44.13;;;11.20;;
53833;SDS011;39735;51.432;5.482;2024-03-25T04:52:07;29.42;;;9.60;;
53833;SDS011;39735;51.432;5.482;2024-03-25T04:55:31;21.20;;;10.05;;
53833;SDS011;39735;51.432;5.482;2024-03-25T04:58:56;28.77;;;10.40;;
53833;SDS011;39735;51.432;5.482;2024-03-25T05:02:20;55.20;;;13.05;;
53833;SDS011;39735;51.432;5.482;2024-03-25T05:05:44;38.85;;;15.27;;
53833;SDS011;39735;51.432;5.482;2024-03-25T05:09:08;31.10;;;11.13;;
53833;SDS011;39735;51.432;5.482;2024-03-25T05:12:32;25.75;;;11.25;;
53833;SDS011;39735;51.432;5.482;2024-03-25T05:15:56;25.80;;;11.07;;
53833;SDS011;39735;51.432;5.482;2024-03-25T05:19:20;33.40;;;12.60;;
53833;SDS011;39735;51.432;5.482;2024-03-25T05:22:43;47.13;;;12.32;;
53833;SDS011;39735;51.432;5.482;2024-03-25T05:26:07;31.88;;;10.90;;
53833;SDS011;39735;51.432;5.482;2024-03-25T05:29:31;42.72;;;13.05;;
53833;SDS011;39735;51.432;5.482;2024-03-25T05:32:55;41.63;;;13.10;;
53833;SDS011;39735;51.432;5.482;2024-03-25T05:36:19;28.13;;;12.82;;
53833;SDS011;39735;51.432;5.482;2024-03-25T05:39:43;25.95;;;12.32;;
53833;SDS011;39735;51.432;5.482;2024-03-25T05:43:07;30.88;;;11.80;;
53833;SDS011;39735;51.432;5.482;2024-03-25T05:46:31;29.00;;;12.65;;
53833;SDS011;39735;51.432;5.482;2024-03-25T05:49:55;46.40;;;12.60;;
53833;SDS011;39735;51.432;5.482;2024-03-25T05:53:30;28.52;;;13.30;;
53833;SDS011;39735;51.432;5.482;2024-03-25T05:56:54;35.33;;;13.02;;
53833;SDS011;39735;51.432;5.482;2024-03-25T06:00:18;31.33;;;11.10;;
53833;SDS011;39735;51.432;5.482;2024-03-25T06:03:42;37.17;;;13.80;;
53833;SDS011;39735;51.432;5.482;2024-03-25T06:07:06;27.20;;;12.32;;
53833;SDS011;39735;51.432;5.482;2024-03-25T06:10:34;25.42;;;11.07;;
53833;SDS011;39735;51.432;5.482;2024-03-25T06:13:58;40.08;;;12.82;;
53833;SDS011;39735;51.432;5.482;2024-03-25T06:17:22;35.70;;;12.07;;
53833;SDS011;39735;51.432;5.482;2024-03-25T06:20:46;22.90;;;11.05;;
53833;SDS011;39735;51.432;5.482;2024-03-25T06:24:10;36.03;;;14.90;;
53833;SDS011;39735;51.432;5.482;2024-03-25T06:27:34;42.30;;;13.02;;
53833;SDS011;39735;51.432;5.482;2024-03-25T06:30:58;33.47;;;14.85;;
53833;SDS011;39735;51.432;5.482;2024-03-25T06:34:40;40.03;;;13.90;;
53833;SDS011;39735;51.432;5.482;2024-03-25T06:38:04;43.95;;;13.30;;
53833;SDS011;39735;51.432;5.482;2024-03-25T06:41:28;24.30;;;12.43;;
53833;SDS011;39735;51.432;5.482;2024-03-25T06:44:52;32.47;;;12.63;;
53833;SDS011;39735;51.432;5.482;2024-03-25T06:48:16;54.97;;;14.95;;
53833;SDS011;39735;51.432;5.482;2024-03-25T06:51:40;31.13;;;12.20;;
53833;SDS011;39735;51.432;5.482;2024-03-25T06:55:04;37.05;;;13.88;;
53833;SDS011;39735;51.432;5.482;2024-03-25T06:58:28;27.80;;;12.98;;
53833;SDS011;39735;51.432;5.482;2024-03-25T07:01:52;43.45;;;15.10;;
53833;SDS011;39735;51.432;5.482;2024-03-25T07:05:16;39.72;;;13.68;;
53833;SDS011;39735;51.432;5.482;2024-03-25T07:08:40;33.92;;;13.55;;
53833;SDS011;39735;51.432;5.482;2024-03-25T07:12:04;34.17;;;15.02;;
53833;SDS011;39735;51.432;5.482;2024-03-25T07:15:28;37.78;;;14.30;;
53833;SDS011;39735;51.432;5.482;2024-03-25T07:18:53;94.55;;;17.27;;
53833;SDS011;39735;51.432;5.482;2024-03-25T07:22:17;69.45;;;19.02;;
53833;SDS011;39735;51.432;5.482;2024-03-25T07:25:41;66.43;;;18.98;;
53833;SDS011;39735;51.432;5.482;2024-03-25T07:29:05;51.75;;;19.58;;
53833;SDS011;39735;51.432;5.482;2024-03-25T07:32:31;55.78;;;20.02;;
53833;SDS011;39735;51.432;5.482;2024-03-25T07:35:55;77.93;;;23.30;;
53833;SDS011;39735;51.432;5.482;2024-03-25T07:39:19;62.25;;;22.98;;
53833;SDS011;39735;51.432;5.482;2024-03-25T07:42:47;73.35;;;25.05;;
53833;SDS011;39735;51.432;5.482;2024-03-25T07:46:10;77.72;;;25.88;;
53833;SDS011;39735;51.432;5.482;2024-03-25T07:49:35;79.13;;;24.55;;
53833;SDS011;39735;51.432;5.482;2024-03-25T07:52:59;74.32;;;26.83;;
53833;SDS011;39735;51.432;5.482;2024-03-25T07:56:23;76.72;;;28.63;;
53833;SDS011;39735;51.432;5.482;2024-03-25T07:59:47;76.65;;;33.20;;
53833;SDS011;39735;51.432;5.482;2024-03-25T08:03:11;79.82;;;34.63;;
53833;SDS011;39735;51.432;5.482;2024-03-25T08:06:34;85.30;;;33.42;;
53833;SDS011;39735;51.432;5.482;2024-03-25T08:09:58;77.03;;;33.15;;
53833;SDS011;39735;51.432;5.482;2024-03-25T08:13:22;82.95;;;33.38;;
53833;SDS011;39735;51.432;5.482;2024-03-25T08:16:47;84.55;;;33.55;;
53833;SDS011;39735;51.432;5.482;2024-03-25T08:20:11;102.00;;;33.55;;
53833;SDS011;39735;51.432;5.482;2024-03-25T08:23:35;81.90;;;35.05;;
53833;SDS011;39735;51.432;5.482;2024-03-25T08:26:59;74.60;;;34.05;;
53833;SDS011;39735;51.432;5.482;2024-03-25T08:30:23;93.28;;;38.65;;
53833;SDS011;39735;51.432;5.482;2024-03-25T08:33:47;104.80;;;41.20;;
53833;SDS011;39735;51.432;5.482;2024-03-25T08:37:11;95.28;;;37.10;;
53833;SDS011;39735;51.432;5.482;2024-03-25T08:40:35;98.10;;;38.85;;
53833;SDS011;39735;51.432;5.482;2024-03-25T08:43:59;82.20;;;37.75;;
53833;SDS011;39735;51.432;5.482;2024-03-25T08:47:24;67.65;;;35.83;;
53833;SDS011;39735;51.432;5.482;2024-03-25T08:50:48;75.13;;;31.95;;
53833;SDS011;39735;51.432;5.482;2024-03-25T08:54:12;84.68;;;34.75;;
53833;SDS011;39735;51.432;5.482;2024-03-25T08:57:37;86.25;;;34.58;;
53833;SDS011;39735;51.432;5.482;2024-03-25T09:01:01;64.45;;;30.05;;
53833;SDS011;39735;51.432;5.482;2024-03-25T09:04:25;86.80;;;31.30;;
53833;SDS011;39735;51.432;5.482;2024-03-25T09:07:49;64.75;;;27.77;;
53833;SDS011;39735;51.432;5.482;2024-03-25T09:11:31;73.53;;;31.42;;
53833;SDS011;39735;51.432;5.482;2024-03-25T09:14:56;42.33;;;23.33;;
53833;SDS011;39735;51.432;5.482;2024-03-25T09:21:46;62.00;;;28.40;;
53833;SDS011;39735;51.432;5.482;2024-03-25T09:25:10;63.75;;;24.85;;
53833;SDS011;39735;51.432;5.482;2024-03-25T09:28:35;44.03;;;19.65;;
53833;SDS011;39735;51.432;5.482;2024-03-25T09:31:59;57.92;;;22.35;;
53833;SDS011;39735;51.432;5.482;2024-03-25T09:35:23;48.05;;;19.60;;
53833;SDS011;39735;51.432;5.482;2024-03-25T09:38:47;41.10;;;17.70;;
53833;SDS011;39735;51.432;5.482;2024-03-25T09:42:12;38.60;;;19.42;;
53833;SDS011;39735;51.432;5.482;2024-03-25T09:45:38;44.65;;;17.83;;
53833;SDS011;39735;51.432;5.482;2024-03-25T09:49:03;47.38;;;18.30;;
53833;SDS011;39735;51.432;5.482;2024-03-25T09:52:28;46.13;;;17.38;;
53833;SDS011;39735;51.432;5.482;2024-03-25T09:55:52;52.40;;;17.10;;
53833;SDS011;39735;51.432;5.482;2024-03-25T09:59:16;38.55;;;16.55;;
53833;SDS011;39735;51.432;5.482;2024-03-25T10:02:41;33.03;;;14.68;;
53833;SDS011;39735;51.432;5.482;2024-03-25T10:06:05;51.80;;;19.10;;
53833;SDS011;39735;51.432;5.482;2024-03-25T10:09:29;45.92;;;15.15;;
53833;SDS011;39735;51.432;5.482;2024-03-25T10:12:54;22.15;;;11.52;;
53833;SDS011;39735;51.432;5.482;2024-03-25T10:16:18;31.38;;;12.35;;
53833;SDS011;39735;51.432;5.482;2024-03-25T10:19:42;60.40;;;14.07;;
53833;SDS011;39735;51.432;5.482;2024-03-25T10:23:15;32.22;;;10.57;;
53833;SDS011;39735;51.432;5.482;2024-03-25T10:30:06;26.98;;;7.80;;
53833;SDS011;39735;51.432;5.482;2024-03-25T10:33:30;32.75;;;9.52;;
53833;SDS011;39735;51.432;5.482;2024-03-25T10:36:56;33.80;;;8.05;;
53833;SDS011;39735;51.432;5.482;2024-03-25T10:40:22;17.25;;;5.70;;
53833;SDS011;39735;51.432;5.482;2024-03-25T10:43:47;16.30;;;4.40;;
53833;SDS011;39735;51.432;5.482;2024-03-25T10:47:19;15.43;;;5.10;;
53833;SDS011;39735;51.432;5.482;2024-03-25T10:51:15;25.83;;;7.15;;
53833;SDS011;39735;51.432;5.482;2024-03-25T10:54:40;17.20;;;7.47;;
53833;SDS011;39735;51.432;5.482;2024-03-25T10:58:04;19.70;;;6.70;;
53833;SDS011;39735;51.432;5.482;2024-03-25T11:01:29;18.92;;;6.03;;
53833;SDS011;39735;51.432;5.482;2024-03-25T11:04:53;8.90;;;3.72;;
53833;SDS011;39735;51.432;5.482;2024-03-25T11:08:17;8.70;;;4.50;;
53833;SDS011;39735;51.432;5.482;2024-03-25T11:11:51;14.88;;;5.05;;
53833;SDS011;39735;51.432;5.482;2024-03-25T11:15:15;15.88;;;4.72;;
53833;SDS011;39735;51.432;5.482;2024-03-25T11:18:38;11.13;;;5.75;;
53833;SDS011;39735;51.432;5.482;2024-03-25T11:22:06;11.88;;;4.28;;
53833;SDS011;39735;51.432;5.482;2024-03-25T11:25:54;17.80;;;4.35;;
53833;SDS011;39735;51.432;5.482;2024-03-25T11:29:18;16.35;;;4.75;;
53833;SDS011;39735;51.432;5.482;2024-03-25T11:32:52;15.77;;;3.55;;
53833;SDS011;39735;51.432;5.482;2024-03-25T11:36:16;16.33;;;4.20;;
53833;SDS011;39735;51.432;5.482;2024-03-25T11:39:40;8.15;;;3.30;;
53833;SDS011;39735;51.432;5.482;2024-03-25T11:43:04;16.15;;;3.92;;
53833;SDS011;39735;51.432;5.482;2024-03-25T11:46:28;13.75;;;3.75;;
53833;SDS011;39735;51.432;5.482;2024-03-25T11:49:55;16.38;;;4.03;;
53833;SDS011;39735;51.432;5.482;2024-03-25T11:53:18;22.55;;;3.92;;
53833;SDS011;39735;51.432;5.482;2024-03-25T11:56:43;25.70;;;5.50;;
53833;SDS011;39735;51.432;5.482;2024-03-25T12:00:07;13.18;;;4.60;;
53833;SDS011;39735;51.432;5.482;2024-03-25T12:06:57;12.77;;;3.58;;
53833;SDS011;39735;51.432;5.482;2024-03-25T12:10:21;4.03;;;2.17;;
53833;SDS011;39735;51.432;5.482;2024-03-25T12:13:45;50.03;;;6.63;;
53833;SDS011;39735;51.432;5.482;2024-03-25T12:17:09;4.13;;;2.00;;
53833;SDS011;39735;51.432;5.482;2024-03-25T12:20:33;9.32;;;2.75;;
53833;SDS011;39735;51.432;5.482;2024-03-25T12:23:57;16.55;;;3.42;;
53833;SDS011;39735;51.432;5.482;2024-03-25T12:27:24;5.82;;;2.63;;
53833;SDS011;39735;51.432;5.482;2024-03-25T12:30:49;6.00;;;2.53;;
53833;SDS011;39735;51.432;5.482;2024-03-25T12:34:24;32.28;;;6.00;;
53833;SDS011;39735;51.432;5.482;2024-03-25T12:37:48;14.15;;;3.55;;
53833;SDS011;39735;51.432;5.482;2024-03-25T12:41:21;17.92;;;2.70;;
53833;SDS011;39735;51.432;5.482;2024-03-25T12:44:45;16.30;;;3.15;;
53833;SDS011;39735;51.432;5.482;2024-03-25T12:48:09;14.15;;;3.30;;
53833;SDS011;39735;51.432;5.482;2024-03-25T12:51:33;14.90;;;5.05;;
53833;SDS011;39735;51.432;5.482;2024-03-25T12:54:57;17.02;;;3.30;;
53833;SDS011;39735;51.432;5.482;2024-03-25T12:58:21;5.20;;;2.30;;
53833;SDS011;39735;51.432;5.482;2024-03-25T13:01:44;16.00;;;3.25;;
53833;SDS011;39735;51.432;5.482;2024-03-25T13:05:09;17.73;;;3.05;;
53833;SDS011;39735;51.432;5.482;2024-03-25T13:08:32;17.40;;;3.67;;
53833;SDS011;39735;51.432;5.482;2024-03-25T13:11:57;10.93;;;2.47;;
53833;SDS011;39735;51.432;5.482;2024-03-25T13:15:21;6.95;;;2.80;;
53833;SDS011;39735;51.432;5.482;2024-03-25T13:18:45;12.90;;;4.03;;
53833;SDS011;39735;51.432;5.482;2024-03-25T13:22:09;7.10;;;4.35;;
53833;SDS011;39735;51.432;5.482;2024-03-25T13:25:33;12.02;;;3.35;;
53833;SDS011;39735;51.432;5.482;2024-03-25T13:28:56;5.60;;;2.10;;
53833;SDS011;39735;51.432;5.482;2024-03-25T13:32:20;7.18;;;2.97;;
53833;SDS011;39735;51.432;5.482;2024-03-25T13:35:45;14.05;;;3.38;;
53833;SDS011;39735;51.432;5.482;2024-03-25T13:39:08;12.88;;;2.42;;
53833;SDS011;39735;51.432;5.482;2024-03-25T13:42:35;8.25;;;2.15;;
53833;SDS011;39735;51.432;5.482;2024-03-25T13:45:59;13.65;;;3.63;;
53833;SDS011;39735;51.432;5.482;2024-03-25T13:49:23;8.43;;;2.60;;
53833;SDS011;39735;51.432;5.482;2024-03-25T13:52:47;10.90;;;2.83;;
53833;SDS011;39735;51.432;5.482;2024-03-25T13:56:11;6.80;;;2.85;;
53833;SDS011;39735;51.432;5.482;2024-03-25T13:59:35;9.05;;;3.17;;
53833;SDS011;39735;51.432;5.482;2024-03-25T14:06:25;17.63;;;2.90;;
53833;SDS011;39735;51.432;5.482;2024-03-25T14:09:49;10.90;;;3.10;;
53833;SDS011;39735;51.432;5.482;2024-03-25T14:13:21;12.30;;;3.08;;
53833;SDS011;39735;51.432;5.482;2024-03-25T14:16:45;8.38;;;2.08;;
53833;SDS011;39735;51.432;5.482;2024-03-25T14:20:09;11.63;;;6.05;;
53833;SDS011;39735;51.432;5.482;2024-03-25T14:23:33;8.35;;;3.42;;
53833;SDS011;39735;51.432;5.482;2024-03-25T14:26:57;18.05;;;3.30;;
53833;SDS011;39735;51.432;5.482;2024-03-25T14:30:22;11.60;;;3.42;;
53833;SDS011;39735;51.432;5.482;2024-03-25T14:33:46;13.77;;;3.53;;
53833;SDS011;39735;51.432;5.482;2024-03-25T14:37:10;11.93;;;3.03;;
53833;SDS011;39735;51.432;5.482;2024-03-25T14:40:38;5.93;;;2.17;;
53833;SDS011;39735;51.432;5.482;2024-03-25T14:44:04;7.72;;;2.55;;
53833;SDS011;39735;51.432;5.482;2024-03-25T14:47:30;3.85;;;2.67;;
53833;SDS011;39735;51.432;5.482;2024-03-25T14:50:54;7.22;;;3.25;;
53833;SDS011;39735;51.432;5.482;2024-03-25T14:54:18;7.55;;;3.13;;
53833;SDS011;39735;51.432;5.482;2024-03-25T14:57:42;9.30;;;2.67;;
53833;SDS011;39735;51.432;5.482;2024-03-25T15:01:06;9.13;;;3.05;;
53833;SDS011;39735;51.432;5.482;2024-03-25T15:04:30;8.98;;;2.35;;
53833;SDS011;39735;51.432;5.482;2024-03-25T15:07:55;9.63;;;2.65;;
53833;SDS011;39735;51.432;5.482;2024-03-25T15:11:19;7.07;;;2.30;;
53833;SDS011;39735;51.432;5.482;2024-03-25T15:14:43;12.32;;;3.30;;
53833;SDS011;39735;51.432;5.482;2024-03-25T15:18:09;15.13;;;4.05;;
53833;SDS011;39735;51.432;5.482;2024-03-25T15:21:33;11.70;;;2.63;;
53833;SDS011;39735;51.432;5.482;2024-03-25T15:24:57;6.20;;;1.85;;
53833;SDS011;39735;51.432;5.482;2024-03-25T15:28:21;10.65;;;2.85;;
53833;SDS011;39735;51.432;5.482;2024-03-25T15:31:45;7.90;;;3.05;;
53833;SDS011;39735;51.432;5.482;2024-03-25T15:35:09;3.45;;;1.73;;
53833;SDS011;39735;51.432;5.482;2024-03-25T15:38:33;4.65;;;1.25;;
53833;SDS011;39735;51.432;5.482;2024-03-25T15:41:57;9.13;;;3.45;;
53833;SDS011;39735;51.432;5.482;2024-03-25T15:45:21;3.00;;;2.03;;
53833;SDS011;39735;51.432;5.482;2024-03-25T15:48:47;9.85;;;2.45;;
53833;SDS011;39735;51.432;5.482;2024-03-25T15:52:12;12.55;;;2.92;;
53833;SDS011;39735;51.432;5.482;2024-03-25T15:55:36;10.60;;;3.20;;
53833;SDS011;39735;51.432;5.482;2024-03-25T15:59:00;12.52;;;3.85;;
53833;SDS011;39735;51.432;5.482;2024-03-25T16:02:24;6.38;;;2.53;;
53833;SDS011;39735;51.432;5.482;2024-03-25T16:05:50;3.13;;;2.00;;
53833;SDS011;39735;51.432;5.482;2024-03-25T16:09:16;6.53;;;4.10;;
53833;SDS011;39735;51.432;5.482;2024-03-25T16:12:40;4.88;;;2.70;;
53833;SDS011;39735;51.432;5.482;2024-03-25T16:16:04;6.82;;;2.38;;
53833;SDS011;39735;51.432;5.482;2024-03-25T16:19:28;7.88;;;2.45;;
53833;SDS011;39735;51.432;5.482;2024-03-25T16:22:55;5.88;;;2.60;;
53833;SDS011;39735;51.432;5.482;2024-03-25T16:26:21;6.93;;;3.25;;
53833;SDS011;39735;51.432;5.482;2024-03-25T16:29:47;7.65;;;2.50;;
53833;SDS011;39735;51.432;5.482;2024-03-25T16:33:10;5.13;;;2.55;;
53833;SDS011;39735;51.432;5.482;2024-03-25T16:36:35;6.57;;;2.25;;
53833;SDS011;39735;51.432;5.482;2024-03-25T16:39:59;6.40;;;2.25;;
53833;SDS011;39735;51.432;5.482;2024-03-25T16:43:23;6.30;;;2.35;;
53833;SDS011;39735;51.432;5.482;2024-03-25T16:46:46;9.70;;;2.55;;
53833;SDS011;39735;51.432;5.482;2024-03-25T16:50:10;3.33;;;1.85;;
53833;SDS011;39735;51.432;5.482;2024-03-25T16:53:34;6.70;;;2.05;;
53833;SDS011;39735;51.432;5.482;2024-03-25T16:56:58;15.82;;;3.55;;
53833;SDS011;39735;51.432;5.482;2024-03-25T17:00:22;11.52;;;3.88;;
53833;SDS011;39735;51.432;5.482;2024-03-25T17:03:46;5.72;;;1.83;;
53833;SDS011;39735;51.432;5.482;2024-03-25T17:07:10;17.23;;;2.33;;
53833;SDS011;39735;51.432;5.482;2024-03-25T17:10:34;9.38;;;2.75;;
53833;SDS011;39735;51.432;5.482;2024-03-25T17:13:58;9.10;;;2.20;;
53833;SDS011;39735;51.432;5.482;2024-03-25T17:17:21;13.85;;;2.38;;
53833;SDS011;39735;51.432;5.482;2024-03-25T17:20:46;7.07;;;2.83;;
53833;SDS011;39735;51.432;5.482;2024-03-25T17:24:11;10.77;;;2.60;;
53833;SDS011;39735;51.432;5.482;2024-03-25T17:27:35;4.20;;;1.83;;
53833;SDS011;39735;51.432;5.482;2024-03-25T17:31:04;12.30;;;3.40;;
53833;SDS011;39735;51.432;5.482;2024-03-25T17:34:29;7.32;;;2.10;;
53833;SDS011;39735;51.432;5.482;2024-03-25T17:37:53;5.93;;;2.63;;
53833;SDS011;39735;51.432;5.482;2024-03-25T17:41:16;14.65;;;2.03;;
53833;SDS011;39735;51.432;5.482;2024-03-25T17:44:40;23.42;;;3.28;;
53833;SDS011;39735;51.432;5.482;2024-03-25T17:48:05;8.20;;;3.40;;
53833;SDS011;39735;51.432;5.482;2024-03-25T17:51:29;14.40;;;4.00;;
53833;SDS011;39735;51.432;5.482;2024-03-25T17:54:53;10.55;;;3.58;;
53833;SDS011;39735;51.432;5.482;2024-03-25T17:58:16;15.20;;;3.50;;
53833;SDS011;39735;51.432;5.482;2024-03-25T18:01:41;7.47;;;2.40;;
53833;SDS011;39735;51.432;5.482;2024-03-25T18:05:05;16.95;;;3.88;;
53833;SDS011;39735;51.432;5.482;2024-03-25T18:08:29;12.82;;;3.28;;
53833;SDS011;39735;51.432;5.482;2024-03-25T18:11:53;12.45;;;3.42;;
53833;SDS011;39735;51.432;5.482;2024-03-25T18:15:16;8.35;;;2.08;;
53833;SDS011;39735;51.432;5.482;2024-03-25T18:18:41;15.70;;;5.70;;
53833;SDS011;39735;51.432;5.482;2024-03-25T18:22:05;10.45;;;3.20;;
53833;SDS011;39735;51.432;5.482;2024-03-25T18:25:29;14.25;;;4.15;;
53833;SDS011;39735;51.432;5.482;2024-03-25T18:28:53;12.52;;;3.15;;
53833;SDS011;39735;51.432;5.482;2024-03-25T18:32:17;22.40;;;4.85;;
53833;SDS011;39735;51.432;5.482;2024-03-25T18:35:41;17.67;;;4.20;;
53833;SDS011;39735;51.432;5.482;2024-03-25T18:39:05;14.93;;;4.40;;
53833;SDS011;39735;51.432;5.482;2024-03-25T18:42:34;13.48;;;3.88;;
53833;SDS011;39735;51.432;5.482;2024-03-25T18:45:59;14.73;;;4.03;;
53833;SDS011;39735;51.432;5.482;2024-03-25T18:49:23;21.10;;;4.70;;
53833;SDS011;39735;51.432;5.482;2024-03-25T18:52:46;19.67;;;4.90;;
53833;SDS011;39735;51.432;5.482;2024-03-25T18:56:10;12.65;;;5.15;;
53833;SDS011;39735;51.432;5.482;2024-03-25T18:59:34;15.52;;;3.58;;
53833;SDS011;39735;51.432;5.482;2024-03-25T19:02:58;13.98;;;3.83;;
53833;SDS011;39735;51.432;5.482;2024-03-25T19:06:22;17.88;;;5.80;;
53833;SDS011;39735;51.432;5.482;2024-03-25T19:09:46;11.90;;;4.82;;
53833;SDS011;39735;51.432;5.482;2024-03-25T19:13:10;13.15;;;4.18;;
53833;SDS011;39735;51.432;5.482;2024-03-25T19:16:34;10.70;;;4.90;;
53833;SDS011;39735;51.432;5.482;2024-03-25T19:19:58;22.35;;;4.38;;
53833;SDS011;39735;51.432;5.482;2024-03-25T19:23:22;12.68;;;4.30;;
53833;SDS011;39735;51.432;5.482;2024-03-25T19:26:46;15.25;;;4.32;;
53833;SDS011;39735;51.432;5.482;2024-03-25T19:30:10;14.13;;;5.03;;
53833;SDS011;39735;51.432;5.482;2024-03-25T19:33:34;17.67;;;5.78;;
53833;SDS011;39735;51.432;5.482;2024-03-25T19:36:58;11.80;;;3.60;;
53833;SDS011;39735;51.432;5.482;2024-03-25T19:40:21;14.60;;;4.78;;
53833;SDS011;39735;51.432;5.482;2024-03-25T19:43:45;15.20;;;3.67;;
53833;SDS011;39735;51.432;5.482;2024-03-25T19:47:12;10.70;;;4.20;;
53833;SDS011;39735;51.432;5.482;2024-03-25T19:50:36;11.50;;;4.32;;
53833;SDS011;39735;51.432;5.482;2024-03-25T19:54:00;27.92;;;4.85;;
53833;SDS011;39735;51.432;5.482;2024-03-25T19:57:24;18.48;;;4.88;;
53833;SDS011;39735;51.432;5.482;2024-03-25T20:00:48;13.25;;;4.20;;
53833;SDS011;39735;51.432;5.482;2024-03-25T20:04:12;10.77;;;3.75;;
53833;SDS011;39735;51.432;5.482;2024-03-25T20:07:37;12.25;;;4.03;;
53833;SDS011;39735;51.432;5.482;2024-03-25T20:11:01;9.95;;;4.20;;
53833;SDS011;39735;51.432;5.482;2024-03-25T20:14:25;43.20;;;6.90;;
53833;SDS011;39735;51.432;5.482;2024-03-25T20:17:49;9.98;;;4.03;;
53833;SDS011;39735;51.432;5.482;2024-03-25T20:21:13;13.68;;;3.10;;
53833;SDS011;39735;51.432;5.482;2024-03-25T20:24:37;10.68;;;5.30;;
53833;SDS011;39735;51.432;5.482;2024-03-25T20:28:01;26.55;;;4.55;;